Time;durP1;ratioP1;P1;durP2;ratioP2;P2;SDS_P1;SDS_P2;PMS_P1;PMS_P2;Temp;Humidity;BMP_temperature;BMP_pressure;BME280_temperature;BME280_humidity;BME280_pressure;Samples;Min_cycle;Max_cycle;Signal;HPM_P1;HPM_P2
2023/07/24 00:00:22;;;;;;;1999.90;999.90;;;20.20;99.90;;;;;;5032621;28;20500;-70
2023/07/24 00:02:47;;;;;;;1999.90;999.90;;;20.00;99.90;;;;;;5015283;28;20025;-71
2023/07/24 00:05:13;;;;;;;1999.90;999.90;;;19.90;99.90;;;;;;5032955;28;20071;-68
2023/07/24 00:07:38;;;;;;;1999.90;999.90;;;19.90;99.90;;;;;;5032953;28;20026;-68
2023/07/24 00:10:04;;;;;;;1999.90;999.90;;;19.80;99.90;;;;;;5032291;28;20065;-68
2023/07/24 00:12:30;;;;;;;1999.90;999.90;;;19.80;99.90;;;;;;5033120;28;20025;-67
2023/07/24 00:14:56;;;;;;;1999.90;999.90;;;19.90;99.90;;;;;;5032645;28;20407;-68
2023/07/24 00:17:21;;;;;;;1999.90;999.90;;;19.90;99.90;;;;;;5014921;28;20436;-67
2023/07/24 00:19:47;;;;;;;1999.90;999.90;;;19.90;99.90;;;;;;5032553;28;20022;-71
2023/07/24 00:22:13;;;;;;;1999.90;999.90;;;20.00;99.90;;;;;;5032160;28;20022;-69
2023/07/24 00:24:39;;;;;;;1999.90;999.90;;;20.00;99.90;;;;;;5032777;28;20141;-70
2023/07/24 00:27:05;;;;;;;1999.90;999.90;;;20.00;99.90;;;;;;5032977;28;20385;-67
2023/07/24 00:29:30;;;;;;;1999.90;999.90;;;20.00;99.90;;;;;;5015009;28;20017;-68
2023/07/24 00:31:56;;;;;;;1999.90;999.90;;;20.00;99.90;;;;;;5032452;28;20044;-70
2023/07/24 00:34:21;;;;;;;1999.90;999.90;;;20.10;99.90;;;;;;5032351;28;20025;-68
2023/07/24 00:36:47;;;;;;;1999.90;999.90;;;20.10;99.90;;;;;;5032026;28;20091;-70
2023/07/24 00:39:14;;;;;;;1999.90;999.90;;;20.10;99.90;;;;;;5014562;28;20029;-68
2023/07/24 00:41:42;;;;;;;1999.90;999.90;;;20.10;99.90;;;;;;5032575;28;20065;-68
2023/07/24 00:44:07;;;;;;;1999.90;999.90;;;20.10;99.90;;;;;;5031493;28;20041;-69
2023/07/24 00:46:34;;;;;;;1999.90;999.90;;;20.10;99.90;;;;;;5014460;28;20029;-69
2023/07/24 00:49:01;;;;;;;1999.90;999.90;;;20.20;99.90;;;;;;5032478;28;20021;-69
2023/07/24 00:51:27;;;;;;;1999.90;999.90;;;20.20;99.90;;;;;;5032657;28;20392;-69
2023/07/24 00:53:59;;;;;;;1999.90;999.90;;;20.20;99.90;;;;;;5034970;28;20495;-72
2023/07/24 00:56:27;;;;;;;1999.90;999.90;;;20.10;99.90;;;;;;5036580;28;20384;-68
2023/07/24 00:58:55;;;;;;;1999.90;999.90;;;20.20;99.90;;;;;;5018100;28;20030;-68
2023/07/24 01:01:21;;;;;;;1999.90;999.90;;;20.20;99.90;;;;;;5036328;28;20169;-68
2023/07/24 01:03:47;;;;;;;1999.90;999.90;;;19.90;99.90;;;;;;5036305;28;20489;-67
2023/07/24 01:06:12;;;;;;;1999.90;999.90;;;19.70;99.90;;;;;;5043647;28;20024;-70
2023/07/24 01:08:38;;;;;;;1999.90;999.90;;;19.60;99.90;;;;;;5055937;28;20420;-68
2023/07/24 01:11:28;;;;;;;1999.90;999.90;;;19.60;99.90;;;;;;5039775;28;20484;-68
2023/07/24 01:14:12;;;;;;;1999.90;999.90;;;19.50;99.90;;;;;;5035071;28;20066;-68
2023/07/24 01:16:42;;;;;;;1999.90;999.90;;;19.50;99.90;;;;;;5018058;28;20076;-68
2023/07/24 01:19:44;;;;;;;1999.90;999.90;;;19.50;99.90;;;;;;5035807;28;20115;-68
2023/07/24 01:22:18;;;;;;;1999.90;999.90;;;19.50;99.90;;;;;;5022490;28;20025;-68
2023/07/24 01:25:02;;;;;;;1999.90;999.90;;;19.50;99.90;;;;;;5035680;28;20033;-68
2023/07/24 01:27:28;;;;;;;1999.90;999.90;;;19.50;99.90;;;;;;5035955;28;20026;-68
2023/07/24 01:29:53;;;;;;;1999.90;999.90;;;19.50;99.90;;;;;;5035573;28;20021;-69
2023/07/24 01:32:19;;;;;;;1999.90;999.90;;;19.50;99.90;;;;;;5017844;28;20424;-69
2023/07/24 01:34:46;;;;;;;1999.90;999.90;;;19.50;99.90;;;;;;5035268;28;20060;-71
2023/07/24 01:37:13;;;;;;;1999.90;999.90;;;19.40;99.90;;;;;;5034559;28;20029;-68
2023/07/24 01:39:41;;;;;;;1999.90;999.90;;;19.50;99.90;;;;;;5035235;28;20103;-69
2023/07/24 01:42:07;;;;;;;1999.90;999.90;;;19.50;99.90;;;;;;5016883;28;20424;-69
2023/07/24 01:44:33;;;;;;;1999.90;999.90;;;19.50;99.90;;;;;;5035126;28;20125;-68
2023/07/24 01:47:02;;;;;;;1999.90;999.90;;;19.60;99.90;;;;;;5035074;28;20547;-69
2023/07/24 01:49:27;;;;;;;1999.90;999.90;;;19.60;99.90;;;;;;5035183;28;20100;-69
2023/07/24 01:51:53;;;;;;;1999.90;999.90;;;19.60;99.90;;;;;;5035286;28;20478;-69
2023/07/24 01:54:18;;;;;;;1999.90;999.90;;;19.60;99.90;;;;;;5035190;28;20022;-69
2023/07/24 01:56:44;;;;;;;1999.90;999.90;;;19.60;99.90;;;;;;5035442;28;20026;-69
2023/07/24 01:59:09;;;;;;;1999.90;999.90;;;19.60;99.90;;;;;;5046408;28;20025;-69
2023/07/24 02:01:35;;;;;;;1999.90;999.90;;;19.60;99.90;;;;;;5055035;28;20033;-69
2023/07/24 02:04:01;;;;;;;1999.90;999.90;;;19.60;99.90;;;;;;5055128;28;20087;-69
2023/07/24 02:06:27;;;;;;;1999.90;999.90;;;19.50;99.90;;;;;;5054797;28;20029;-69
2023/07/24 02:08:53;;;;;;;1999.90;999.90;;;19.60;99.90;;;;;;5054892;28;20546;-69
2023/07/24 02:11:18;;;;;;;1999.90;999.90;;;19.70;99.90;;;;;;5036829;28;20036;-69
2023/07/24 02:13:45;;;;;;;1999.90;999.90;;;19.70;99.90;;;;;;5034632;28;20393;-72
2023/07/24 02:16:12;;;;;;;1999.90;999.90;;;19.70;99.90;;;;;;5034798;28;20068;-69
2023/07/24 02:18:42;;;;;;;1999.90;999.90;;;19.70;99.90;;;;;;5034668;28;20063;-68
2023/07/24 02:21:08;;;;;;;1999.90;999.90;;;19.70;99.90;;;;;;5034549;28;20041;-68
2023/07/24 02:23:34;;;;;;;1999.90;999.90;;;19.60;99.90;;;;;;5034536;28;20021;-71
2023/07/24 02:26:00;;;;;;;1999.90;999.90;;;19.60;99.90;;;;;;5034282;28;20033;-71
2023/07/24 02:28:26;;;;;;;1999.90;999.90;;;19.60;99.90;;;;;;5034717;28;20025;-69
2023/07/24 02:30:55;;;;;;;1999.90;999.90;;;19.60;99.90;;;;;;5034519;28;20030;-68
2023/07/24 02:33:21;;;;;;;1999.90;999.90;;;19.60;99.90;;;;;;5034079;28;20555;-69
2023/07/24 02:35:47;;;;;;;1999.90;999.90;;;19.50;99.90;;;;;;5034248;28;20026;-68
2023/07/24 02:38:13;;;;;;;1999.90;999.90;;;19.50;99.90;;;;;;5033546;28;20032;-71
2023/07/24 02:40:41;;;;;;;1999.90;999.90;;;19.50;99.90;;;;;;5034187;28;20503;-70
2023/07/24 02:43:06;;;;;;;1999.90;999.90;;;19.50;99.90;;;;;;5034164;28;20045;-68
2023/07/24 02:45:36;;;;;;;1999.90;999.90;;;19.40;99.90;;;;;;5016433;28;20095;-68
2023/07/24 02:48:02;;;;;;;1999.90;999.90;;;19.20;99.90;;;;;;5033681;28;20052;-67
2023/07/24 02:50:28;;;;;;;1999.90;999.90;;;19.10;99.90;;;;;;5034027;28;20526;-69
2023/07/24 02:52:54;;;;;;;1999.90;999.90;;;19.00;99.90;;;;;;5034005;28;20044;-71
2023/07/24 02:55:19;;;;;;;1999.90;999.90;;;18.90;99.90;;;;;;5034020;28;20025;-68
2023/07/24 02:57:45;;;;;;;1999.90;999.90;;;18.90;99.90;;;;;;5016152;28;20051;-68
2023/07/24 03:00:11;;;;;;;1999.90;999.90;;;18.80;99.90;;;;;;5033779;28;20037;-69
2023/07/24 03:02:37;;;;;;;1999.90;999.90;;;18.80;99.90;;;;;;5033861;28;20064;-68
2023/07/24 03:05:03;;;;;;;1999.90;999.90;;;18.80;99.90;;;;;;5016036;28;20586;-68
2023/07/24 03:07:29;;;;;;;1999.90;999.90;;;18.70;99.90;;;;;;5034307;28;20513;-68
2023/07/24 03:09:55;;;;;;;1999.90;999.90;;;18.70;99.90;;;;;;5033392;28;20064;-71
2023/07/24 03:12:20;;;;;;;1999.90;999.90;;;18.60;99.90;;;;;;5034048;28;20033;-70
2023/07/24 03:14:47;;;;;;;1999.90;999.90;;;18.50;99.90;;;;;;5033626;28;20032;-68
2023/07/24 03:17:13;;;;;;;1999.90;999.90;;;18.50;99.90;;;;;;5032948;28;20076;-69
2023/07/24 03:19:39;;;;;;;1999.90;999.90;;;18.50;99.90;;;;;;5015915;28;20033;-68
2023/07/24 03:22:05;;;;;;;1999.90;999.90;;;18.50;99.90;;;;;;5032826;28;20018;-69
2023/07/24 03:24:31;;;;;;;1999.90;999.90;;;18.40;99.90;;;;;;5033738;28;20505;-69
2023/07/24 03:26:56;;;;;;;1999.90;999.90;;;18.40;99.90;;;;;;5032970;28;20018;-68
2023/07/24 03:29:22;;;;;;;1999.90;999.90;;;18.40;99.90;;;;;;5033509;28;20416;-69
2023/07/24 03:31:47;;;;;;;1999.90;999.90;;;18.30;99.90;;;;;;5033371;28;20026;-71
2023/07/24 03:34:13;;;;;;;1999.90;999.90;;;18.20;99.90;;;;;;5033073;28;20032;-69
2023/07/24 03:36:41;;;;;;;1999.90;999.90;;;18.20;99.90;;;;;;5015079;28;20103;-69
2023/07/24 03:39:07;;;;;;;1999.90;999.90;;;18.20;99.90;;;;;;5032904;28;20021;-69
2023/07/24 03:41:32;;;;;;;1999.90;999.90;;;18.10;99.90;;;;;;5033055;28;20036;-71
2023/07/24 03:43:58;;;;;;;1999.90;999.90;;;18.10;99.90;;;;;;5033012;28;20085;-70
2023/07/24 03:46:24;;;;;;;1999.90;999.90;;;18.10;99.90;;;;;;5033069;28;20049;-69
2023/07/24 03:48:50;;;;;;;1999.90;999.90;;;18.10;99.90;;;;;;5032893;28;20026;-69
2023/07/24 03:51:16;;;;;;;1999.90;999.90;;;18.00;99.90;;;;;;5033003;28;20384;-69
2023/07/24 03:53:41;;;;;;;1999.90;999.90;;;18.00;99.90;;;;;;5015222;28;20029;-69
2023/07/24 03:56:07;;;;;;;1999.90;999.90;;;18.00;99.90;;;;;;5032948;28;20049;-70
2023/07/24 03:58:33;;;;;;;1999.90;999.90;;;18.00;99.90;;;;;;5032668;28;20072;-69
2023/07/24 04:00:58;;;;;;;1999.90;999.90;;;17.90;99.90;;;;;;5032820;28;20025;-69
2023/07/24 04:03:24;;;;;;;1999.90;999.90;;;17.90;99.90;;;;;;5032835;28;20053;-69
2023/07/24 04:05:50;;;;;;;1999.90;999.90;;;17.90;99.90;;;;;;5032673;28;20033;-69
2023/07/24 04:08:15;;;;;;;1999.90;999.90;;;18.00;99.90;;;;;;5032754;28;20112;-69
2023/07/24 04:10:41;;;;;;;1999.90;999.90;;;18.00;99.90;;;;;;5032281;28;20021;-71
2023/07/24 04:13:06;;;;;;;1999.90;999.90;;;18.00;99.90;;;;;;5031946;28;20022;-70
2023/07/24 04:15:32;;;;;;;1999.90;999.90;;;18.10;99.90;;;;;;5032813;28;20516;-69
2023/07/24 04:17:58;;;;;;;1999.90;999.90;;;18.10;99.90;;;;;;5015033;28;20022;-69
2023/07/24 04:20:23;;;;;;;1999.90;999.90;;;18.20;99.90;;;;;;5032559;28;20037;-70
2023/07/24 04:22:49;;;;;;;1999.90;999.90;;;18.20;99.90;;;;;;5032586;28;20021;-69
2023/07/24 04:25:15;;;;;;;1999.90;999.90;;;18.30;99.90;;;;;;5032691;28;20037;-69
2023/07/24 04:27:41;;;;;;;1999.90;999.90;;;18.30;99.90;;;;;;5033351;28;20021;-69
2023/07/24 04:30:07;;;;;;;1999.90;999.90;;;18.30;99.90;;;;;;5018978;28;20037;-69
2023/07/24 04:32:33;;;;;;;1999.90;999.90;;;18.40;99.90;;;;;;5036673;28;20399;-69
2023/07/24 04:34:58;;;;;;;1999.90;999.90;;;18.40;99.90;;;;;;5035491;28;20014;-70
2023/07/24 04:37:24;;;;;;;1999.90;999.90;;;18.50;99.90;;;;;;5035562;28;20476;-69
2023/07/24 04:39:49;;;;;;;1999.90;999.90;;;18.50;99.90;;;;;;5036547;28;20033;-69
2023/07/24 04:42:15;;;;;;;1999.90;999.90;;;18.50;99.90;;;;;;5038005;28;20037;-69
2023/07/24 04:44:41;;;;;;;1999.90;999.90;;;18.40;99.90;;;;;;5039162;28;20034;-69
2023/07/24 04:47:06;;;;;;;1999.90;999.90;;;18.50;99.90;;;;;;5035348;28;20022;-69
2023/07/24 04:49:32;;;;;;;1999.90;999.90;;;18.50;99.90;;;;;;5036183;28;20472;-70
2023/07/24 04:51:59;;;;;;;1999.90;999.90;;;18.50;99.90;;;;;;5036188;28;20030;-69
2023/07/24 04:54:24;;;;;;;1999.90;999.90;;;18.50;99.90;;;;;;5035779;28;20545;-69
2023/07/24 04:56:50;;;;;;;1999.90;999.90;;;18.60;99.90;;;;;;5017204;28;20116;-69
2023/07/24 04:59:16;;;;;;;1999.90;999.90;;;18.50;99.90;;;;;;5035649;28;20033;-70
2023/07/24 05:01:42;;;;;;;1999.90;999.90;;;18.50;99.90;;;;;;5036132;28;20026;-71
2023/07/24 05:04:08;;;;;;;1999.90;999.90;;;18.50;99.90;;;;;;5036223;28;20032;-69
2023/07/24 05:06:35;;;;;;;1999.90;999.90;;;18.60;99.90;;;;;;5035514;28;20021;-69
2023/07/24 05:09:01;;;;;;;1999.90;999.90;;;18.50;99.90;;;;;;5035646;28;20021;-69
2023/07/24 05:11:27;;;;;;;1999.90;999.90;;;18.40;99.90;;;;;;5035482;28;20021;-69
2023/07/24 05:13:52;;;;;;;1999.90;999.90;;;18.50;99.90;;;;;;5035813;28;20040;-71
2023/07/24 05:16:18;;;;;;;1999.90;999.90;;;18.50;99.90;;;;;;5036086;28;20105;-71
2023/07/24 05:18:43;;;;;;;1999.90;999.90;;;18.50;99.90;;;;;;5035448;28;20056;-69
2023/07/24 05:21:09;;;;;;;1999.90;999.90;;;18.40;99.90;;;;;;5017451;28;20025;-69
2023/07/24 05:23:35;;;;;;;1999.90;999.90;;;18.50;99.90;;;;;;5035778;28;20403;-69
2023/07/24 05:26:02;;;;;;;1999.90;999.90;;;18.50;99.90;;;;;;5035545;28;20079;-69
2023/07/24 05:28:29;;;;;;;1999.90;999.90;;;18.50;99.90;;;;;;5035660;28;20029;-69
2023/07/24 05:30:55;;;;;;;1999.90;999.90;;;18.50;99.90;;;;;;5035211;28;20129;-69
2023/07/24 05:33:21;;;;;;;1999.90;999.90;;;18.60;99.90;;;;;;5034854;28;20116;-69
2023/07/24 05:35:48;;;;;;;1999.90;999.90;;;18.60;99.90;;;;;;5035515;28;20022;-69
2023/07/24 05:38:13;;;;;;;1999.90;999.90;;;18.60;99.90;;;;;;5034219;28;20057;-69
2023/07/24 05:40:39;;;;;;;1999.90;999.90;;;18.60;99.90;;;;;;5035212;28;20076;-71
2023/07/24 05:43:04;;;;;;;1999.90;999.90;;;18.50;99.90;;;;;;5046796;28;20102;-69
2023/07/24 05:45:30;;;;;;;1999.90;999.90;;;18.50;99.90;;;;;;5032915;28;20040;-68
2023/07/24 05:47:56;;;;;;;1999.90;999.90;;;18.40;99.90;;;;;;5031894;28;20108;-68
2023/07/24 05:50:21;;;;;;;1999.90;999.90;;;18.40;99.90;;;;;;5037403;28;20052;-69
2023/07/24 05:52:47;;;;;;;1999.90;999.90;;;18.50;99.90;;;;;;5041839;28;20111;-68
2023/07/24 05:55:12;;;;;;;1999.90;999.90;;;18.70;99.90;;;;;;5035328;28;20407;-71
2023/07/24 05:57:38;;;;;;;1999.90;999.90;;;18.70;99.90;;;;;;5042041;28;20037;-69
2023/07/24 06:00:05;;;;;;;1999.90;999.90;;;18.80;99.90;;;;;;5015965;28;20021;-68
2023/07/24 06:02:31;;;;;;;1999.90;999.90;;;18.90;99.90;;;;;;5034556;28;20400;-69
2023/07/24 06:04:56;;;;;;;1999.90;999.90;;;19.00;99.90;;;;;;5034309;28;20037;-71
2023/07/24 06:07:22;;;;;;;1999.90;999.90;;;19.10;99.90;;;;;;5034579;28;20433;-69
2023/07/24 06:09:48;;;;;;;1999.90;999.90;;;19.10;99.90;;;;;;5015922;28;20026;-69
2023/07/24 06:12:14;;;;;;;1999.90;999.90;;;19.00;99.90;;;;;;5034158;28;20037;-69
2023/07/24 06:14:39;;;;;;;1999.90;999.90;;;19.10;99.90;;;;;;5033934;28;20025;-68
2023/07/24 06:17:05;;;;;;;1999.90;999.90;;;19.10;99.90;;;;;;5033937;28;20030;-70
2023/07/24 06:19:30;;;;;;;1999.90;999.90;;;19.10;99.90;;;;;;5032039;28;20033;-69
2023/07/24 06:21:56;;;;;;;1999.90;999.90;;;19.10;99.90;;;;;;5030982;28;20033;-68
2023/07/24 06:24:23;;;;;;;1999.90;999.90;;;19.20;99.90;;;;;;5033803;28;20025;-68
2023/07/24 06:26:49;;;;;;;1999.90;999.90;;;19.30;99.90;;;;;;5032928;28;20387;-69
2023/07/24 06:29:15;;;;;;;1999.90;999.90;;;19.50;99.90;;;;;;5016657;28;20035;-70
2023/07/24 06:31:40;;;;;;;1999.90;999.90;;;19.70;99.90;;;;;;5032724;28;20087;-70
2023/07/24 06:34:06;;;;;;;1999.90;999.90;;;19.80;99.90;;;;;;5032080;28;20025;-70
2023/07/24 06:36:32;;;;;;;1999.90;999.90;;;20.00;99.90;;;;;;5013867;28;20068;-70
2023/07/24 06:38:57;;;;;;;1999.90;999.90;;;20.00;99.90;;;;;;5032403;28;20447;-69
2023/07/24 06:41:23;;;;;;;1999.90;999.90;;;20.10;99.90;;;;;;5028903;28;20518;-70
2023/07/24 06:43:49;;;;;;;1999.90;999.90;;;19.90;99.90;;;;;;5011053;28;20058;-70
2023/07/24 06:46:15;;;;;;;1999.90;999.90;;;19.80;99.90;;;;;;5013547;28;20099;-70
2023/07/24 06:48:40;;;;;;;1999.90;999.90;;;19.60;99.90;;;;;;5011591;28;20476;-70
2023/07/24 06:51:06;;;;;;;1999.90;999.90;;;19.60;99.90;;;;;;5015096;28;20500;-70
2023/07/24 06:53:32;;;;;;;1999.90;999.90;;;19.60;99.90;;;;;;5012314;28;20037;-69
2023/07/24 06:55:57;;;;;;;1999.90;999.90;;;19.70;99.90;;;;;;5012364;28;20083;-70
2023/07/24 06:58:23;;;;;;;1999.90;999.90;;;19.90;99.90;;;;;;5015678;28;20026;-69
2023/07/24 07:00:48;;;;;;;1999.90;999.90;;;20.00;99.90;;;;;;5032289;28;20056;-70
2023/07/24 07:03:14;;;;;;;1999.90;999.90;;;20.20;99.90;;;;;;5010871;28;20033;-70
2023/07/24 07:05:40;;;;;;;1999.90;999.90;;;20.60;99.90;;;;;;5019387;28;20036;-69
2023/07/24 07:08:05;;;;;;;1999.90;999.90;;;20.90;99.90;;;;;;5004635;28;20033;-70
2023/07/24 07:10:31;;;;;;;1999.90;999.90;;;21.20;99.90;;;;;;5011725;28;20157;-70
2023/07/24 07:12:57;;;;;;;1999.90;999.90;;;21.10;99.90;;;;;;5019487;28;20104;-70
2023/07/24 07:15:23;;;;;;;1999.90;999.90;;;21.00;99.90;;;;;;5027218;28;20025;-69
2023/07/24 07:17:48;;;;;;;1999.90;999.90;;;21.00;99.90;;;;;;5023583;28;20157;-70
2023/07/24 07:20:14;;;;;;;1999.90;999.90;;;21.00;99.90;;;;;;5027264;28;20060;-69
2023/07/24 07:22:39;;;;;;;1999.90;999.90;;;21.00;99.90;;;;;;5015531;28;20041;-69
2023/07/24 07:25:05;;;;;;;1999.90;999.90;;;20.90;99.90;;;;;;5021058;28;20037;-70
2023/07/24 07:27:31;;;;;;;1999.90;999.90;;;20.70;99.90;;;;;;5015669;28;20520;-70
2023/07/24 07:29:56;;;;;;;1999.90;999.90;;;20.70;99.90;;;;;;5027541;28;20033;-69
2023/07/24 07:32:22;;;;;;;1999.90;999.90;;;20.80;99.90;;;;;;5018654;28;20550;-69
2023/07/24 07:34:48;;;;;;;1999.90;999.90;;;20.80;99.90;;;;;;5010191;28;20041;-68
2023/07/24 07:37:13;;;;;;;1999.90;999.90;;;20.80;99.90;;;;;;5010553;28;20117;-69
2023/07/24 07:39:39;;;;;;;1999.90;999.90;;;20.80;99.90;;;;;;5011492;28;20109;-68
2023/07/24 07:42:05;;;;;;;1999.90;999.90;;;20.80;99.90;;;;;;5015207;28;20053;-68
2023/07/24 07:44:30;;;;;;;1999.90;999.90;;;21.00;99.90;;;;;;5022890;28;20389;-69
2023/07/24 07:46:56;;;;;;;1999.90;999.90;;;21.50;99.90;;;;;;5041026;28;20120;-68
2023/07/24 07:49:22;;;;;;;1999.90;999.90;;;23.30;99.90;;;;;;5035274;28;20037;-71
2023/07/24 07:51:48;;;;;;;1999.90;999.90;;;25.10;99.90;;;;;;5036534;28;20029;-72
2023/07/24 07:54:15;;;;;;;1999.90;999.90;;;26.50;99.90;;;;;;5030828;28;20017;-69
2023/07/24 07:56:41;;;;;;;1999.90;999.90;;;27.50;99.90;;;;;;5038125;28;20018;-69
2023/07/24 07:59:09;;;;;;;1999.90;999.90;;;26.90;99.90;;;;;;5039472;28;20035;-69
2023/07/24 08:01:39;;;;;;;1999.90;999.90;;;25.30;99.90;;;;;;5047912;28;20484;-71
2023/07/24 08:04:04;;;;;;;1999.90;999.90;;;23.10;99.90;;;;;;5031073;28;20025;-69
2023/07/24 08:06:30;;;;;;;1999.90;999.90;;;22.10;99.90;;;;;;5038258;28;20451;-69
2023/07/24 08:08:56;;;;;;;1999.90;999.90;;;21.40;99.90;;;;;;5032314;28;20051;-70
2023/07/24 08:11:21;;;;;;;1999.90;999.90;;;20.90;99.90;;;;;;5036997;28;20055;-69
2023/07/24 08:13:47;;;;;;;1999.90;999.90;;;20.70;99.90;;;;;;5012592;28;20512;-70
2023/07/24 08:16:19;;;;;;;1999.90;999.90;;;20.70;99.90;;;;;;5030167;28;20033;-73
2023/07/24 08:18:48;;;;;;;1999.90;999.90;;;20.80;99.90;;;;;;5029694;28;20021;-70
2023/07/24 08:21:17;;;;;;;1999.90;999.90;;;22.80;99.90;;;;;;5025495;28;20041;-70
2023/07/24 08:23:43;;;;;;;1999.90;999.90;;;26.40;99.90;;;;;;5030152;28;20103;-70
2023/07/24 08:26:09;;;;;;;1999.90;999.90;;;27.70;99.90;;;;;;5029413;28;20480;-71
2023/07/24 08:28:35;;;;;;;1999.90;999.90;;;28.80;99.90;;;;;;5029655;28;20033;-73
2023/07/24 08:31:01;;;;;;;1999.90;999.90;;;29.20;99.90;;;;;;5029871;28;20030;-70
2023/07/24 08:33:28;;;;;;;1999.90;999.90;;;29.50;99.90;;;;;;5029349;28;20033;-69
2023/07/24 08:36:05;;;;;;;1999.90;999.90;;;29.30;99.90;;;;;;5029414;28;20029;-71
2023/07/24 08:38:31;;;;;;;1999.90;999.90;;;28.50;99.90;;;;;;5028250;28;20408;-70
2023/07/24 08:41:08;;;;;;;1999.90;999.90;;;28.60;99.90;;;;;;5029955;28;20068;-70
2023/07/24 08:43:36;;;;;;;1999.90;999.90;;;27.90;99.90;;;;;;5031087;28;20049;-73
2023/07/24 08:46:03;;;;;;;1999.90;999.90;;;25.60;99.90;;;;;;5032571;28;20507;-69
2023/07/24 08:48:35;;;;;;;1999.90;999.90;;;24.10;99.90;;;;;;5031974;28;20042;-69
2023/07/24 08:51:16;;;;;;;;;;;23.30;99.90;;;;;;5032245;28;20040;-68
2023/07/24 08:53:43;;;;;;;1999.90;999.90;;;22.90;99.90;;;;;;5025022;28;19909;-70
2023/07/24 08:56:10;;;;;;;1999.90;999.90;;;23.10;99.90;;;;;;5014855;28;20017;-69
2023/07/24 08:58:36;;;;;;;1999.90;999.90;;;23.50;99.90;;;;;;5023813;28;20119;-69
2023/07/24 09:01:03;;;;;;;1999.90;999.90;;;25.60;99.90;;;;;;5045125;28;20101;-69
2023/07/24 09:03:30;;;;;;;1999.90;999.90;;;28.20;99.90;;;;;;5026541;28;20687;-70
2023/07/24 09:05:56;;;;;;;1999.90;999.90;;;28.90;99.90;;;;;;5038427;28;20384;-70
2023/07/24 09:08:30;;;;;;;1999.90;999.90;;;29.20;99.90;;;;;;5032134;28;20029;-74
2023/07/24 09:10:56;;;;;;;1999.90;999.90;;;30.10;99.90;;;;;;5028650;28;20030;-70
2023/07/24 09:13:21;;;;;;;1999.90;999.90;;;31.30;99.90;;;;;;5029615;28;20373;-71
2023/07/24 09:15:47;;;;;;;1999.90;999.90;;;31.80;99.90;;;;;;5033543;28;20026;-71
2023/07/24 09:18:12;;;;;;;1999.90;999.90;;;31.10;99.90;;;;;;5033588;28;20036;-70
2023/07/24 09:20:42;;;;;;;1999.90;999.90;;;31.60;99.90;;;;;;5033200;28;20373;-71
2023/07/24 09:23:09;;;;;;;1999.90;999.90;;;31.20;99.90;;;;;;5032958;28;20480;-73
2023/07/24 09:25:37;;;;;;;1999.90;999.90;;;30.30;99.90;;;;;;5033626;28;20431;-71
2023/07/24 09:28:29;;;;;;;1999.90;999.90;;;30.70;99.90;;;;;;5016000;28;20148;-69
2023/07/24 09:30:56;;;;;;;1999.90;999.90;;;29.70;99.90;;;;;;5012408;28;20041;-69
2023/07/24 09:33:46;;;;;;;1999.90;999.90;;;28.40;99.90;;;;;;5032373;28;20037;-70
2023/07/24 09:36:12;;;;;;;1999.90;999.90;;;28.30;99.90;;;;;;5032989;28;20028;-70
2023/07/24 09:38:39;;;;;;;1999.90;999.90;;;26.50;99.90;;;;;;5014613;28;20029;-70
2023/07/24 09:41:06;;;;;;;1999.90;999.90;;;25.60;99.90;;;;;;5032822;28;20025;-69
2023/07/24 09:43:32;;;;;;;1999.90;999.90;;;25.00;99.90;;;;;;5032194;28;20068;-69
2023/07/24 09:45:58;;;;;;;1999.90;999.90;;;24.20;99.90;;;;;;5037769;28;20064;-70
2023/07/24 09:48:27;;;;;;;1999.90;999.90;;;24.60;99.90;;;;;;5042860;28;20471;-70
2023/07/24 09:50:56;;;;;;;1999.90;999.90;;;25.50;99.90;;;;;;5037966;28;20029;-69
2023/07/24 09:53:31;;;;;;;1999.90;999.90;;;26.70;99.90;;;;;;5044617;28;20026;-69
2023/07/24 09:56:00;;;;;;;1999.90;999.90;;;27.30;99.90;;;;;;5038264;28;20072;-70
2023/07/24 09:58:26;;;;;;;1999.90;999.90;;;28.50;99.90;;;;;;5039115;28;20506;-73
2023/07/24 10:00:53;;;;;;;1999.90;999.90;;;27.50;99.90;;;;;;5033123;28;20029;-70
2023/07/24 10:03:21;;;;;;;1999.90;999.90;;;27.10;99.90;;;;;;5032876;28;20496;-70
2023/07/24 10:05:47;;;;;;;1999.90;999.90;;;27.00;99.90;;;;;;5036121;28;20079;-70
2023/07/24 10:08:19;;;;;;;1999.90;999.90;;;27.60;99.90;;;;;;5044097;28;20449;-70
2023/07/24 10:10:45;;;;;;;1999.90;999.90;;;27.30;99.90;;;;;;5027006;28;20033;-70
2023/07/24 10:13:14;;;;;;;1999.90;999.90;;;28.70;99.90;;;;;;5035976;28;20120;-73
2023/07/24 10:15:42;;;;;;;1999.90;999.90;;;28.00;99.90;;;;;;5009224;28;20400;-71
2023/07/24 10:18:09;;;;;;;1999.90;999.90;;;27.90;99.90;;;;;;5047633;28;20032;-70
2023/07/24 10:20:41;;;;;;;1999.90;999.90;;;27.70;99.90;;;;;;5045483;28;20029;-70
2023/07/24 10:23:10;;;;;;;1999.90;999.90;;;26.80;99.90;;;;;;5048296;28;20033;-71
2023/07/24 10:25:40;;;;;;;1999.90;999.90;;;26.30;99.90;;;;;;5046025;28;20354;-71
2023/07/24 10:28:10;;;;;;;1999.90;999.90;;;25.70;99.90;;;;;;5030623;28;20119;-73
2023/07/24 10:30:40;;;;;;;1999.90;999.90;;;24.40;99.90;;;;;;5035598;28;20026;-70
2023/07/24 10:33:12;;;;;;;1999.90;999.90;;;24.00;99.90;;;;;;5035280;28;20021;-71
2023/07/24 10:35:50;;;;;;;1999.90;999.90;;;26.90;99.90;;;;;;5043000;28;20029;-71
2023/07/24 10:38:17;;;;;;;1999.90;999.90;;;27.40;99.90;;;;;;5029568;28;20025;-73
2023/07/24 10:40:45;;;;;;;1999.90;999.90;;;27.50;99.90;;;;;;5036893;28;20484;-73
2023/07/24 10:43:12;;;;;;;1999.90;999.90;;;27.90;99.90;;;;;;5031191;28;20045;-70
2023/07/24 10:45:46;;;;;;;1999.90;999.90;;;25.90;99.90;;;;;;5033280;28;20025;-71
2023/07/24 10:48:12;;;;;;;1999.90;999.90;;;24.10;99.90;;;;;;5029962;28;20029;-70
2023/07/24 10:50:43;;;;;;;1999.90;999.90;;;23.80;99.90;;;;;;5036136;28;20403;-73
2023/07/24 10:53:10;;;;;;;1999.90;999.90;;;25.50;99.90;;;;;;5046470;28;20403;-74
2023/07/24 10:55:35;;;;;;;1999.90;999.90;;;27.10;99.90;;;;;;5034439;28;20599;-70
2023/07/24 10:58:01;;;;;;;1999.90;999.90;;;26.70;99.90;;;;;;5029686;28;20107;-70
2023/07/24 11:00:27;;;;;;;1999.90;999.90;;;26.50;99.90;;;;;;5031656;28;20083;-70
2023/07/24 11:02:54;;;;;;;1999.90;999.90;;;26.50;99.90;;;;;;5030009;28;20459;-71
2023/07/24 11:05:21;;;;;;;1999.90;999.90;;;26.00;99.90;;;;;;5030347;28;20026;-73
2023/07/24 11:07:47;;;;;;;1999.90;999.90;;;25.60;99.90;;;;;;5038192;28;20436;-71
2023/07/24 11:10:21;;;;;;;1999.90;999.90;;;25.50;99.90;;;;;;5017628;28;20033;-69
2023/07/24 11:12:46;;;;;;;1999.90;999.90;;;25.10;99.90;;;;;;5029515;28;20037;-70
2023/07/24 11:15:13;;;;;;;1999.90;999.90;;;25.30;99.90;;;;;;5046121;28;20025;-71
2023/07/24 11:17:40;;;;;;;1999.90;999.90;;;26.30;99.90;;;;;;5038985;28;20021;-71
2023/07/24 11:20:06;;;;;;;1999.90;999.90;;;26.60;99.90;;;;;;5035053;28;20044;-74
2023/07/24 11:22:33;;;;;;;1999.90;999.90;;;26.50;99.90;;;;;;5046381;28;20021;-71
2023/07/24 11:24:59;;;;;;;1999.90;999.90;;;27.20;99.90;;;;;;5034534;28;20485;-71
2023/07/24 11:27:26;;;;;;;1999.90;999.90;;;27.40;99.90;;;;;;5037113;28;20148;-70
2023/07/24 11:29:51;;;;;;;1999.90;999.90;;;26.00;99.90;;;;;;5042594;28;20099;-70
2023/07/24 11:32:20;;;;;;;1999.90;999.90;;;25.60;99.90;;;;;;5038613;28;20035;-74
2023/07/24 11:34:48;;;;;;;1999.90;999.90;;;25.80;99.90;;;;;;5044307;28;20487;-70
2023/07/24 11:37:14;;;;;;;1999.90;999.90;;;25.80;99.90;;;;;;5030033;28;20028;-71
2023/07/24 11:39:40;;;;;;;1999.90;999.90;;;26.20;99.90;;;;;;5030061;28;20071;-70
2023/07/24 11:42:06;;;;;;;1999.90;999.90;;;25.70;99.90;;;;;;5030168;28;20693;-70
2023/07/24 11:44:32;;;;;;;1999.90;999.90;;;25.30;99.90;;;;;;5032998;28;20029;-74
2023/07/24 11:47:05;;;;;;;1999.90;999.90;;;25.70;99.90;;;;;;5040915;28;20033;-70
2023/07/24 11:49:31;;;;;;;1999.90;999.90;;;26.00;99.90;;;;;;5011965;28;20029;-70
2023/07/24 11:52:07;;;;;;;1999.90;999.90;;;26.00;99.90;;;;;;5028610;28;20056;-71
2023/07/24 11:54:35;;;;;;;1999.90;999.90;;;26.40;99.90;;;;;;5031794;28;20017;-71
2023/07/24 11:57:00;;;;;;;1999.90;999.90;;;26.50;99.90;;;;;;5027831;28;20060;-75